sensor_id;sensor_type;location;lat;lon;timestamp;temperature;humidity
54178;DHT22;40085;53.004;6.770;2023-02-18T00:00:15;7.30;92.10
54178;DHT22;40085;53.004;6.770;2023-02-18T00:02:42;7.40;93.20
54178;DHT22;40085;53.004;6.770;2023-02-18T00:05:07;7.40;93.50
54178;DHT22;40085;53.004;6.770;2023-02-18T00:07:34;7.40;94.40
54178;DHT22;40085;53.004;6.770;2023-02-18T00:10:00;7.40;94.50
54178;DHT22;40085;53.004;6.770;2023-02-18T00:12:26;7.40;95.70
54178;DHT22;40085;53.004;6.770;2023-02-18T00:14:51;7.40;96.70
54178;DHT22;40085;53.004;6.770;2023-02-18T00:17:17;7.40;96.70
54178;DHT22;40085;53.004;6.770;2023-02-18T00:19:42;7.40;97.50
54178;DHT22;40085;53.004;6.770;2023-02-18T00:22:08;7.40;98.10
54178;DHT22;40085;53.004;6.770;2023-02-18T00:24:34;7.40;98.70
54178;DHT22;40085;53.004;6.770;2023-02-18T00:26:59;7.50;99.40
54178;DHT22;40085;53.004;6.770;2023-02-18T00:29:25;7.50;99.40
54178;DHT22;40085;53.004;6.770;2023-02-18T00:31:50;7.50;99.60
54178;DHT22;40085;53.004;6.770;2023-02-18T00:34:16;7.40;99.80
54178;DHT22;40085;53.004;6.770;2023-02-18T00:36:42;7.50;99.70
54178;DHT22;40085;53.004;6.770;2023-02-18T00:39:08;7.50;98.90
54178;DHT22;40085;53.004;6.770;2023-02-18T00:41:34;7.40;98.90
54178;DHT22;40085;53.004;6.770;2023-02-18T00:44:00;7.40;99.90
54178;DHT22;40085;53.004;6.770;2023-02-18T00:46:27;7.40;99.90
54178;DHT22;40085;53.004;6.770;2023-02-18T00:48:53;7.40;99.90
54178;DHT22;40085;53.004;6.770;2023-02-18T00:51:19;7.40;99.90
54178;DHT22;40085;53.004;6.770;2023-02-18T00:53:45;7.40;99.90
54178;DHT22;40085;53.004;6.770;2023-02-18T00:56:11;7.30;99.90
54178;DHT22;40085;53.004;6.770;2023-02-18T00:58:37;7.30;99.90
54178;DHT22;40085;53.004;6.770;2023-02-18T01:01:04;7.20;99.90
54178;DHT22;40085;53.004;6.770;2023-02-18T01:03:30;7.20;99.90
54178;DHT22;40085;53.004;6.770;2023-02-18T01:05:55;7.20;99.90
54178;DHT22;40085;53.004;6.770;2023-02-18T01:08:21;7.20;99.90
54178;DHT22;40085;53.004;6.770;2023-02-18T01:10:49;7.20;99.90
54178;DHT22;40085;53.004;6.770;2023-02-18T01:13:15;7.20;99.90
54178;DHT22;40085;53.004;6.770;2023-02-18T01:15:41;7.20;99.90
54178;DHT22;40085;53.004;6.770;2023-02-18T01:18:08;7.10;99.90
54178;DHT22;40085;53.004;6.770;2023-02-18T01:20:35;7.00;99.90
54178;DHT22;40085;53.004;6.770;2023-02-18T01:23:00;7.40;99.90
54178;DHT22;40085;53.004;6.770;2023-02-18T01:25:26;7.00;99.90
54178;DHT22;40085;53.004;6.770;2023-02-18T01:27:51;7.10;99.90
54178;DHT22;40085;53.004;6.770;2023-02-18T01:30:17;7.00;99.90
54178;DHT22;40085;53.004;6.770;2023-02-18T01:32:43;7.10;99.90
54178;DHT22;40085;53.004;6.770;2023-02-18T01:35:12;7.10;99.90
54178;DHT22;40085;53.004;6.770;2023-02-18T01:37:38;7.10;99.90
54178;DHT22;40085;53.004;6.770;2023-02-18T01:40:05;7.20;99.90
54178;DHT22;40085;53.004;6.770;2023-02-18T01:42:31;7.20;99.90
54178;DHT22;40085;53.004;6.770;2023-02-18T01:48:19;7.30;99.90
54178;DHT22;40085;53.004;6.770;2023-02-18T01:50:49;7.30;99.90
54178;DHT22;40085;53.004;6.770;2023-02-18T01:53:19;7.30;99.90
54178;DHT22;40085;53.004;6.770;2023-02-18T01:55:47;7.30;99.90
54178;DHT22;40085;53.004;6.770;2023-02-18T01:58:14;7.30;99.90
54178;DHT22;40085;53.004;6.770;2023-02-18T02:00:40;7.40;99.90
54178;DHT22;40085;53.004;6.770;2023-02-18T02:03:05;7.40;99.90
54178;DHT22;40085;53.004;6.770;2023-02-18T02:05:32;7.40;99.90
54178;DHT22;40085;53.004;6.770;2023-02-18T02:07:58;7.40;99.90
54178;DHT22;40085;53.004;6.770;2023-02-18T02:10:35;7.40;99.90
54178;DHT22;40085;53.004;6.770;2023-02-18T02:13:40;7.40;99.90
54178;DHT22;40085;53.004;6.770;2023-02-18T02:16:43;7.40;99.90
54178;DHT22;40085;53.004;6.770;2023-02-18T02:19:42;7.40;99.90
54178;DHT22;40085;53.004;6.770;2023-02-18T02:25:23;7.50;99.90
54178;DHT22;40085;53.004;6.770;2023-02-18T02:39:55;7.60;99.90
54178;DHT22;40085;53.004;6.770;2023-02-18T02:45:10;7.70;99.90
54178;DHT22;40085;53.004;6.770;2023-02-18T02:50:39;7.70;99.90
54178;DHT22;40085;53.004;6.770;2023-02-18T02:53:13;7.80;99.90
54178;DHT22;40085;53.004;6.770;2023-02-18T02:55:41;7.70;99.90
54178;DHT22;40085;53.004;6.770;2023-02-18T02:58:16;7.70;99.90
54178;DHT22;40085;53.004;6.770;2023-02-18T03:01:14;7.80;99.90
54178;DHT22;40085;53.004;6.770;2023-02-18T03:04:00;7.80;99.90
54178;DHT22;40085;53.004;6.770;2023-02-18T03:06:52;7.80;99.90
54178;DHT22;40085;53.004;6.770;2023-02-18T03:12:27;7.90;99.90
54178;DHT22;40085;53.004;6.770;2023-02-18T03:17:56;8.00;99.90
54178;DHT22;40085;53.004;6.770;2023-02-18T03:20:50;8.00;99.90
54178;DHT22;40085;53.004;6.770;2023-02-18T03:23:17;8.00;99.90
54178;DHT22;40085;53.004;6.770;2023-02-18T03:25:44;8.00;99.90
54178;DHT22;40085;53.004;6.770;2023-02-18T03:28:19;8.00;99.90
54178;DHT22;40085;53.004;6.770;2023-02-18T03:31:07;8.10;99.90
54178;DHT22;40085;53.004;6.770;2023-02-18T03:33:48;8.10;99.90
54178;DHT22;40085;53.004;6.770;2023-02-18T03:36:15;8.10;99.90
54178;DHT22;40085;53.004;6.770;2023-02-18T03:38:47;8.50;99.90
54178;DHT22;40085;53.004;6.770;2023-02-18T03:41:15;8.10;99.90
54178;DHT22;40085;53.004;6.770;2023-02-18T03:44:08;8.10;99.90
54178;DHT22;40085;53.004;6.770;2023-02-18T03:46:34;8.40;99.90
54178;DHT22;40085;53.004;6.770;2023-02-18T03:49:01;8.20;99.90
54178;DHT22;40085;53.004;6.770;2023-02-18T03:51:27;8.20;99.90
54178;DHT22;40085;53.004;6.770;2023-02-18T03:53:52;8.20;99.90
54178;DHT22;40085;53.004;6.770;2023-02-18T03:56:19;8.20;99.90
54178;DHT22;40085;53.004;6.770;2023-02-18T03:58:45;8.20;99.90
54178;DHT22;40085;53.004;6.770;2023-02-18T04:01:11;8.30;99.90
54178;DHT22;40085;53.004;6.770;2023-02-18T04:03:36;8.30;99.90
54178;DHT22;40085;53.004;6.770;2023-02-18T04:06:02;8.30;99.90
54178;DHT22;40085;53.004;6.770;2023-02-18T04:08:28;8.30;99.90
54178;DHT22;40085;53.004;6.770;2023-02-18T04:10:54;8.30;99.90
54178;DHT22;40085;53.004;6.770;2023-02-18T04:13:19;8.40;99.90
54178;DHT22;40085;53.004;6.770;2023-02-18T04:15:48;8.40;99.90
54178;DHT22;40085;53.004;6.770;2023-02-18T04:18:13;8.40;99.90
54178;DHT22;40085;53.004;6.770;2023-02-18T04:20:39;8.40;99.90
54178;DHT22;40085;53.004;6.770;2023-02-18T04:23:05;8.40;99.90
54178;DHT22;40085;53.004;6.770;2023-02-18T04:25:30;8.50;99.90
54178;DHT22;40085;53.004;6.770;2023-02-18T04:27:56;8.40;99.90
54178;DHT22;40085;53.004;6.770;2023-02-18T04:30:22;8.40;99.90
54178;DHT22;40085;53.004;6.770;2023-02-18T04:32:47;8.50;99.90
54178;DHT22;40085;53.004;6.770;2023-02-18T04:35:13;8.50;99.90
54178;DHT22;40085;53.004;6.770;2023-02-18T04:37:39;8.50;99.90
54178;DHT22;40085;53.004;6.770;2023-02-18T04:40:05;8.50;99.90
54178;DHT22;40085;53.004;6.770;2023-02-18T04:42:31;8.50;99.90
54178;DHT22;40085;53.004;6.770;2023-02-18T04:44:56;8.50;99.90
54178;DHT22;40085;53.004;6.770;2023-02-18T04:47:22;8.60;99.90
54178;DHT22;40085;53.004;6.770;2023-02-18T04:49:48;8.50;99.90
54178;DHT22;40085;53.004;6.770;2023-02-18T04:52:14;8.50;99.90
54178;DHT22;40085;53.004;6.770;2023-02-18T04:54:39;9.60;99.90
54178;DHT22;40085;53.004;6.770;2023-02-18T04:57:05;8.60;99.90
54178;DHT22;40085;53.004;6.770;2023-02-18T04:59:30;8.60;99.90
54178;DHT22;40085;53.004;6.770;2023-02-18T05:01:56;9.90;99.90
54178;DHT22;40085;53.004;6.770;2023-02-18T05:04:22;8.60;99.90
54178;DHT22;40085;53.004;6.770;2023-02-18T05:06:47;8.60;99.90
54178;DHT22;40085;53.004;6.770;2023-02-18T05:09:13;8.60;99.90
54178;DHT22;40085;53.004;6.770;2023-02-18T05:11:39;8.60;99.90
54178;DHT22;40085;53.004;6.770;2023-02-18T05:14:05;8.60;99.90
54178;DHT22;40085;53.004;6.770;2023-02-18T05:16:31;8.60;99.90
54178;DHT22;40085;53.004;6.770;2023-02-18T05:18:56;8.60;99.90
54178;DHT22;40085;53.004;6.770;2023-02-18T05:21:22;8.60;99.90
54178;DHT22;40085;53.004;6.770;2023-02-18T05:23:48;8.60;99.90
54178;DHT22;40085;53.004;6.770;2023-02-18T05:26:13;8.60;99.90
54178;DHT22;40085;53.004;6.770;2023-02-18T05:28:39;8.50;99.90
54178;DHT22;40085;53.004;6.770;2023-02-18T05:31:04;8.60;99.90
54178;DHT22;40085;53.004;6.770;2023-02-18T05:33:30;8.60;99.90
54178;DHT22;40085;53.004;6.770;2023-02-18T05:35:56;8.60;99.90
54178;DHT22;40085;53.004;6.770;2023-02-18T05:38:22;8.60;99.90
54178;DHT22;40085;53.004;6.770;2023-02-18T05:40:47;8.60;99.90
54178;DHT22;40085;53.004;6.770;2023-02-18T05:43:14;8.60;99.90
54178;DHT22;40085;53.004;6.770;2023-02-18T05:45:40;8.60;99.90
54178;DHT22;40085;53.004;6.770;2023-02-18T05:48:05;8.60;99.90
54178;DHT22;40085;53.004;6.770;2023-02-18T05:50:31;8.60;99.90
54178;DHT22;40085;53.004;6.770;2023-02-18T05:52:56;8.60;99.90
54178;DHT22;40085;53.004;6.770;2023-02-18T05:55:22;8.70;99.90
54178;DHT22;40085;53.004;6.770;2023-02-18T05:57:49;8.60;99.90
54178;DHT22;40085;53.004;6.770;2023-02-18T06:00:15;8.70;99.90
54178;DHT22;40085;53.004;6.770;2023-02-18T06:02:40;8.80;99.90
54178;DHT22;40085;53.004;6.770;2023-02-18T06:05:06;8.70;99.90
54178;DHT22;40085;53.004;6.770;2023-02-18T06:07:32;8.80;99.90
54178;DHT22;40085;53.004;6.770;2023-02-18T06:09:58;8.80;99.90
54178;DHT22;40085;53.004;6.770;2023-02-18T06:12:23;8.80;99.90
54178;DHT22;40085;53.004;6.770;2023-02-18T06:14:49;9.00;99.90
54178;DHT22;40085;53.004;6.770;2023-02-18T06:17:15;9.20;99.90
54178;DHT22;40085;53.004;6.770;2023-02-18T06:22:09;9.00;99.90
54178;DHT22;40085;53.004;6.770;2023-02-18T06:24:34;9.00;99.90
54178;DHT22;40085;53.004;6.770;2023-02-18T06:27:00;9.50;99.90
54178;DHT22;40085;53.004;6.770;2023-02-18T06:29:26;9.00;99.90
54178;DHT22;40085;53.004;6.770;2023-02-18T06:31:54;9.00;99.90
54178;DHT22;40085;53.004;6.770;2023-02-18T06:34:19;9.10;99.90
54178;DHT22;40085;53.004;6.770;2023-02-18T06:36:45;9.70;99.90
54178;DHT22;40085;53.004;6.770;2023-02-18T06:39:11;9.20;99.90
54178;DHT22;40085;53.004;6.770;2023-02-18T06:41:36;9.20;99.90
54178;DHT22;40085;53.004;6.770;2023-02-18T06:44:02;9.20;99.90
54178;DHT22;40085;53.004;6.770;2023-02-18T06:46:28;9.20;99.90
54178;DHT22;40085;53.004;6.770;2023-02-18T06:48:53;9.20;99.90
54178;DHT22;40085;53.004;6.770;2023-02-18T06:51:19;9.20;99.90
54178;DHT22;40085;53.004;6.770;2023-02-18T06:53:45;9.30;99.90
54178;DHT22;40085;53.004;6.770;2023-02-18T06:56:10;9.30;99.90
54178;DHT22;40085;53.004;6.770;2023-02-18T07:01:03;9.40;99.90
54178;DHT22;40085;53.004;6.770;2023-02-18T07:03:29;9.40;99.90
54178;DHT22;40085;53.004;6.770;2023-02-18T07:05:54;9.40;99.90
54178;DHT22;40085;53.004;6.770;2023-02-18T07:08:20;9.50;99.90
54178;DHT22;40085;53.004;6.770;2023-02-18T07:10:46;9.50;99.90
54178;DHT22;40085;53.004;6.770;2023-02-18T07:15:38;9.50;99.90
54178;DHT22;40085;53.004;6.770;2023-02-18T07:18:04;9.60;99.90
54178;DHT22;40085;53.004;6.770;2023-02-18T07:20:30;9.80;99.90
54178;DHT22;40085;53.004;6.770;2023-02-18T07:22:55;9.60;99.90
54178;DHT22;40085;53.004;6.770;2023-02-18T07:25:23;9.70;99.90
54178;DHT22;40085;53.004;6.770;2023-02-18T07:27:49;9.50;99.90
54178;DHT22;40085;53.004;6.770;2023-02-18T07:30:15;9.70;99.90
54178;DHT22;40085;53.004;6.770;2023-02-18T07:32:41;9.70;99.90
54178;DHT22;40085;53.004;6.770;2023-02-18T07:35:07;9.80;99.90
54178;DHT22;40085;53.004;6.770;2023-02-18T07:37:33;9.80;99.90
54178;DHT22;40085;53.004;6.770;2023-02-18T07:39:58;9.80;99.90
54178;DHT22;40085;53.004;6.770;2023-02-18T07:42:24;9.80;99.90
54178;DHT22;40085;53.004;6.770;2023-02-18T07:44:49;11.00;99.90
54178;DHT22;40085;53.004;6.770;2023-02-18T07:47:16;9.80;99.90
54178;DHT22;40085;53.004;6.770;2023-02-18T07:49:44;9.80;99.90
54178;DHT22;40085;53.004;6.770;2023-02-18T07:52:10;9.80;99.90
54178;DHT22;40085;53.004;6.770;2023-02-18T07:54:36;9.80;99.90
54178;DHT22;40085;53.004;6.770;2023-02-18T07:57:01;9.80;99.90
54178;DHT22;40085;53.004;6.770;2023-02-18T07:59:27;9.90;99.90
54178;DHT22;40085;53.004;6.770;2023-02-18T08:01:53;9.80;99.90
54178;DHT22;40085;53.004;6.770;2023-02-18T08:04:18;9.90;99.90
54178;DHT22;40085;53.004;6.770;2023-02-18T08:06:46;9.90;99.90
54178;DHT22;40085;53.004;6.770;2023-02-18T08:09:13;9.90;99.90
54178;DHT22;40085;53.004;6.770;2023-02-18T08:11:39;9.90;99.90
54178;DHT22;40085;53.004;6.770;2023-02-18T08:14:05;9.80;99.90
54178;DHT22;40085;53.004;6.770;2023-02-18T08:16:30;9.80;99.90
54178;DHT22;40085;53.004;6.770;2023-02-18T08:18:56;9.80;99.90
54178;DHT22;40085;53.004;6.770;2023-02-18T08:21:24;9.90;99.90
54178;DHT22;40085;53.004;6.770;2023-02-18T08:23:50;9.80;99.90
54178;DHT22;40085;53.004;6.770;2023-02-18T08:26:16;10.60;99.90
54178;DHT22;40085;53.004;6.770;2023-02-18T08:28:43;9.80;99.90
54178;DHT22;40085;53.004;6.770;2023-02-18T08:31:25;9.70;99.90
54178;DHT22;40085;53.004;6.770;2023-02-18T08:33:52;9.80;99.90
54178;DHT22;40085;53.004;6.770;2023-02-18T08:36:19;9.70;99.90
54178;DHT22;40085;53.004;6.770;2023-02-18T08:38:45;9.70;99.90
54178;DHT22;40085;53.004;6.770;2023-02-18T08:41:11;9.70;99.90
54178;DHT22;40085;53.004;6.770;2023-02-18T08:43:39;9.70;99.90
54178;DHT22;40085;53.004;6.770;2023-02-18T08:46:04;9.70;99.90
54178;DHT22;40085;53.004;6.770;2023-02-18T08:48:30;9.70;99.90
54178;DHT22;40085;53.004;6.770;2023-02-18T08:50:56;9.70;99.90
54178;DHT22;40085;53.004;6.770;2023-02-18T08:53:22;10.50;99.90
54178;DHT22;40085;53.004;6.770;2023-02-18T08:55:48;9.70;99.90
54178;DHT22;40085;53.004;6.770;2023-02-18T08:58:14;9.70;99.90
54178;DHT22;40085;53.004;6.770;2023-02-18T09:00:40;9.70;99.90
54178;DHT22;40085;53.004;6.770;2023-02-18T09:03:06;9.70;99.90
54178;DHT22;40085;53.004;6.770;2023-02-18T09:05:32;9.60;99.90
54178;DHT22;40085;53.004;6.770;2023-02-18T09:07:58;9.70;99.90
54178;DHT22;40085;53.004;6.770;2023-02-18T09:10:23;9.60;99.90
54178;DHT22;40085;53.004;6.770;2023-02-18T09:12:49;9.60;99.90
54178;DHT22;40085;53.004;6.770;2023-02-18T09:15:15;9.60;99.90
54178;DHT22;40085;53.004;6.770;2023-02-18T09:17:41;9.70;99.90
54178;DHT22;40085;53.004;6.770;2023-02-18T09:20:07;9.70;99.90
54178;DHT22;40085;53.004;6.770;2023-02-18T09:22:33;9.60;99.90
54178;DHT22;40085;53.004;6.770;2023-02-18T09:24:58;9.60;99.90
54178;DHT22;40085;53.004;6.770;2023-02-18T09:27:24;9.60;99.90
54178;DHT22;40085;53.004;6.770;2023-02-18T09:29:50;9.60;99.90
54178;DHT22;40085;53.004;6.770;2023-02-18T09:32:16;9.60;99.90
54178;DHT22;40085;53.004;6.770;2023-02-18T09:34:43;9.50;99.90
54178;DHT22;40085;53.004;6.770;2023-02-18T09:37:09;9.60;99.90
54178;DHT22;40085;53.004;6.770;2023-02-18T09:39:35;9.90;99.90
54178;DHT22;40085;53.004;6.770;2023-02-18T09:42:06;9.50;99.90
54178;DHT22;40085;53.004;6.770;2023-02-18T09:44:42;9.50;99.90
54178;DHT22;40085;53.004;6.770;2023-02-18T09:49:52;9.50;99.90
54178;DHT22;40085;53.004;6.770;2023-02-18T09:52:28;9.50;99.90
54178;DHT22;40085;53.004;6.770;2023-02-18T09:54:55;9.50;99.90
54178;DHT22;40085;53.004;6.770;2023-02-18T09:57:36;9.50;99.90
54178;DHT22;40085;53.004;6.770;2023-02-18T10:00:22;9.50;99.90
54178;DHT22;40085;53.004;6.770;2023-02-18T10:02:58;9.50;99.90
54178;DHT22;40085;53.004;6.770;2023-02-18T10:05:28;9.50;99.90
54178;DHT22;40085;53.004;6.770;2023-02-18T10:08:05;9.50;99.90
54178;DHT22;40085;53.004;6.770;2023-02-18T10:10:45;9.50;99.90
54178;DHT22;40085;53.004;6.770;2023-02-18T10:13:14;9.50;99.90
54178;DHT22;40085;53.004;6.770;2023-02-18T10:15:40;9.50;99.90
54178;DHT22;40085;53.004;6.770;2023-02-18T10:20:42;9.50;99.90
54178;DHT22;40085;53.004;6.770;2023-02-18T10:23:09;9.50;99.90
54178;DHT22;40085;53.004;6.770;2023-02-18T10:25:43;10.30;99.90
54178;DHT22;40085;53.004;6.770;2023-02-18T10:28:10;10.20;99.90
54178;DHT22;40085;53.004;6.770;2023-02-18T10:30:41;9.60;99.90
54178;DHT22;40085;53.004;6.770;2023-02-18T10:36:24;9.70;99.90
54178;DHT22;40085;53.004;6.770;2023-02-18T10:44:27;9.80;99.90
54178;DHT22;40085;53.004;6.770;2023-02-18T10:47:14;9.80;99.90
54178;DHT22;40085;53.004;6.770;2023-02-18T10:50:01;9.80;99.90
54178;DHT22;40085;53.004;6.770;2023-02-18T10:52:32;9.90;99.90
54178;DHT22;40085;53.004;6.770;2023-02-18T10:55:06;9.90;99.90
54178;DHT22;40085;53.004;6.770;2023-02-18T10:57:34;10.00;99.90
54178;DHT22;40085;53.004;6.770;2023-02-18T11:00:01;10.30;99.90
54178;DHT22;40085;53.004;6.770;2023-02-18T11:02:35;10.10;99.90
54178;DHT22;40085;53.004;6.770;2023-02-18T11:05:17;10.10;99.90
54178;DHT22;40085;53.004;6.770;2023-02-18T11:07:47;10.10;99.90
54178;DHT22;40085;53.004;6.770;2023-02-18T11:10:23;10.20;99.90
54178;DHT22;40085;53.004;6.770;2023-02-18T11:12:52;10.30;99.90
54178;DHT22;40085;53.004;6.770;2023-02-18T11:15:23;10.50;99.90
54178;DHT22;40085;53.004;6.770;2023-02-18T11:17:51;10.50;99.90
54178;DHT22;40085;53.004;6.770;2023-02-18T11:20:25;10.50;99.90
54178;DHT22;40085;53.004;6.770;2023-02-18T11:22:51;10.50;99.90
54178;DHT22;40085;53.004;6.770;2023-02-18T11:25:23;10.60;99.90
54178;DHT22;40085;53.004;6.770;2023-02-18T11:27:57;10.60;99.90
54178;DHT22;40085;53.004;6.770;2023-02-18T11:30:29;11.40;99.90
54178;DHT22;40085;53.004;6.770;2023-02-18T11:32:59;10.80;99.90
54178;DHT22;40085;53.004;6.770;2023-02-18T11:35:29;10.80;99.90
54178;DHT22;40085;53.004;6.770;2023-02-18T11:37:57;10.80;99.90
54178;DHT22;40085;53.004;6.770;2023-02-18T11:40:34;10.70;99.90
54178;DHT22;40085;53.004;6.770;2023-02-18T11:43:11;11.10;99.90
54178;DHT22;40085;53.004;6.770;2023-02-18T11:45:37;10.80;99.90
54178;DHT22;40085;53.004;6.770;2023-02-18T11:48:17;11.20;99.90
54178;DHT22;40085;53.004;6.770;2023-02-18T11:50:43;10.90;99.90
54178;DHT22;40085;53.004;6.770;2023-02-18T11:53:33;10.80;99.90
54178;DHT22;40085;53.004;6.770;2023-02-18T11:56:02;10.80;99.90
54178;DHT22;40085;53.004;6.770;2023-02-18T11:58:36;10.80;99.90
54178;DHT22;40085;53.004;6.770;2023-02-18T12:01:03;10.90;99.90
54178;DHT22;40085;53.004;6.770;2023-02-18T12:03:51;10.80;99.90
54178;DHT22;40085;53.004;6.770;2023-02-18T12:06:29;10.90;99.90
54178;DHT22;40085;53.004;6.770;2023-02-18T12:11:43;10.90;99.90
54178;DHT22;40085;53.004;6.770;2023-02-18T12:14:21;10.90;99.90
54178;DHT22;40085;53.004;6.770;2023-02-18T12:19:55;11.00;99.90
54178;DHT22;40085;53.004;6.770;2023-02-18T12:25:43;11.00;99.90
54178;DHT22;40085;53.004;6.770;2023-02-18T12:38:54;11.10;99.90
54178;DHT22;40085;53.004;6.770;2023-02-18T12:44:52;11.40;99.90
54178;DHT22;40085;53.004;6.770;2023-02-18T12:50:24;11.50;99.90
54178;DHT22;40085;53.004;6.770;2023-02-18T12:53:04;11.40;99.90
54178;DHT22;40085;53.004;6.770;2023-02-18T13:01:32;11.50;99.90
54178;DHT22;40085;53.004;6.770;2023-02-18T13:07:12;12.60;99.90
54178;DHT22;40085;53.004;6.770;2023-02-18T13:12:39;11.50;99.90
54178;DHT22;40085;53.004;6.770;2023-02-18T13:15:22;11.60;99.90
54178;DHT22;40085;53.004;6.770;2023-02-18T13:17:50;11.60;99.90
54178;DHT22;40085;53.004;6.770;2023-02-18T13:20:24;11.70;99.90
54178;DHT22;40085;53.004;6.770;2023-02-18T13:22:52;11.70;99.90
54178;DHT22;40085;53.004;6.770;2023-02-18T13:25:18;11.70;99.90
54178;DHT22;40085;53.004;6.770;2023-02-18T13:30:29;11.70;99.90
54178;DHT22;40085;53.004;6.770;2023-02-18T13:33:10;11.60;99.90
54178;DHT22;40085;53.004;6.770;2023-02-18T13:41:19;11.60;99.90
54178;DHT22;40085;53.004;6.770;2023-02-18T13:43:45;11.60;99.90
54178;DHT22;40085;53.004;6.770;2023-02-18T13:46:13;11.60;99.90
54178;DHT22;40085;53.004;6.770;2023-02-18T13:48:46;11.60;99.90
54178;DHT22;40085;53.004;6.770;2023-02-18T13:51:26;11.60;99.90
54178;DHT22;40085;53.004;6.770;2023-02-18T13:53:55;11.60;99.90
54178;DHT22;40085;53.004;6.770;2023-02-18T13:56:29;11.60;99.90
54178;DHT22;40085;53.004;6.770;2023-02-18T14:01:49;11.60;99.90
54178;DHT22;40085;53.004;6.770;2023-02-18T14:09:59;11.30;99.90
54178;DHT22;40085;53.004;6.770;2023-02-18T14:28:35;11.20;99.90
54178;DHT22;40085;53.004;6.770;2023-02-18T14:33:33;11.30;99.90
54178;DHT22;40085;53.004;6.770;2023-02-18T14:49:41;11.30;99.90
54178;DHT22;40085;53.004;6.770;2023-02-18T14:52:37;11.20;99.90
54178;DHT22;40085;53.004;6.770;2023-02-18T14:55:06;11.20;99.90
54178;DHT22;40085;53.004;6.770;2023-02-18T14:57:40;10.70;99.90
54178;DHT22;40085;53.004;6.770;2023-02-18T15:00:15;11.20;99.90
54178;DHT22;40085;53.004;6.770;2023-02-18T15:02:41;11.20;99.90
54178;DHT22;40085;53.004;6.770;2023-02-18T15:05:19;11.20;99.90
54178;DHT22;40085;53.004;6.770;2023-02-18T15:08:00;11.10;99.90
54178;DHT22;40085;53.004;6.770;2023-02-18T15:13:13;11.10;99.90
54178;DHT22;40085;53.004;6.770;2023-02-18T15:15:42;11.00;99.90
54178;DHT22;40085;53.004;6.770;2023-02-18T15:18:20;11.00;99.90
54178;DHT22;40085;53.004;6.770;2023-02-18T15:20:47;10.90;99.90
54178;DHT22;40085;53.004;6.770;2023-02-18T15:23:15;11.50;99.90
54178;DHT22;40085;53.004;6.770;2023-02-18T15:25:48;10.90;99.90
54178;DHT22;40085;53.004;6.770;2023-02-18T15:28:25;10.80;99.90
54178;DHT22;40085;53.004;6.770;2023-02-18T15:30:51;10.80;99.90
54178;DHT22;40085;53.004;6.770;2023-02-18T15:33:18;10.80;99.90
54178;DHT22;40085;53.004;6.770;2023-02-18T15:35:45;10.70;99.90
54178;DHT22;40085;53.004;6.770;2023-02-18T15:38:20;10.70;99.90
54178;DHT22;40085;53.004;6.770;2023-02-18T15:40:49;10.70;99.90
54178;DHT22;40085;53.004;6.770;2023-02-18T15:43:20;10.70;99.90
54178;DHT22;40085;53.004;6.770;2023-02-18T15:45:46;10.70;99.90
54178;DHT22;40085;53.004;6.770;2023-02-18T15:48:38;10.80;99.90
54178;DHT22;40085;53.004;6.770;2023-02-18T15:51:11;10.60;99.90
54178;DHT22;40085;53.004;6.770;2023-02-18T15:53:39;10.60;99.90
54178;DHT22;40085;53.004;6.770;2023-02-18T15:56:09;10.60;99.90
54178;DHT22;40085;53.004;6.770;2023-02-18T15:58:37;10.60;99.90
54178;DHT22;40085;53.004;6.770;2023-02-18T16:01:05;10.50;99.90
54178;DHT22;40085;53.004;6.770;2023-02-18T16:03:44;10.50;99.90
54178;DHT22;40085;53.004;6.770;2023-02-18T16:08:36;10.50;99.90
54178;DHT22;40085;53.004;6.770;2023-02-18T16:11:10;10.40;99.90
54178;DHT22;40085;53.004;6.770;2023-02-18T16:13:44;8.50;99.90
54178;DHT22;40085;53.004;6.770;2023-02-18T16:16:35;10.20;99.90
54178;DHT22;40085;53.004;6.770;2023-02-18T16:19:01;10.40;99.90
54178;DHT22;40085;53.004;6.770;2023-02-18T16:21:43;10.20;99.90
54178;DHT22;40085;53.004;6.770;2023-02-18T16:24:29;10.20;99.90
54178;DHT22;40085;53.004;6.770;2023-02-18T16:26:58;10.20;99.90
54178;DHT22;40085;53.004;6.770;2023-02-18T16:29:33;10.10;99.90
54178;DHT22;40085;53.004;6.770;2023-02-18T16:31:59;10.10;99.90
54178;DHT22;40085;53.004;6.770;2023-02-18T16:34:24;10.10;99.90
54178;DHT22;40085;53.004;6.770;2023-02-18T16:36:52;10.10;99.90
54178;DHT22;40085;53.004;6.770;2023-02-18T16:39:37;10.10;99.90
54178;DHT22;40085;53.004;6.770;2023-02-18T16:42:08;10.10;99.90
54178;DHT22;40085;53.004;6.770;2023-02-18T16:44:33;10.10;99.90
54178;DHT22;40085;53.004;6.770;2023-02-18T16:46:59;10.00;99.90
54178;DHT22;40085;53.004;6.770;2023-02-18T16:49:26;9.80;99.90
54178;DHT22;40085;53.004;6.770;2023-02-18T16:51:53;10.00;99.90
54178;DHT22;40085;53.004;6.770;2023-02-18T16:54:18;10.00;99.90
54178;DHT22;40085;53.004;6.770;2023-02-18T16:56:44;10.50;99.90
54178;DHT22;40085;53.004;6.770;2023-02-18T16:59:09;9.90;99.90
54178;DHT22;40085;53.004;6.770;2023-02-18T17:01:38;10.20;99.90
54178;DHT22;40085;53.004;6.770;2023-02-18T17:04:14;10.80;99.90
54178;DHT22;40085;53.004;6.770;2023-02-18T17:06:41;10.00;99.90
54178;DHT22;40085;53.004;6.770;2023-02-18T17:09:13;10.00;99.90
54178;DHT22;40085;53.004;6.770;2023-02-18T17:11:43;9.90;99.90
54178;DHT22;40085;53.004;6.770;2023-02-18T17:14:13;9.80;99.90
54178;DHT22;40085;53.004;6.770;2023-02-18T17:16:39;9.80;99.90
54178;DHT22;40085;53.004;6.770;2023-02-18T17:19:04;10.20;99.90
54178;DHT22;40085;53.004;6.770;2023-02-18T17:21:30;9.70;99.90
54178;DHT22;40085;53.004;6.770;2023-02-18T17:23:55;9.80;99.90
54178;DHT22;40085;53.004;6.770;2023-02-18T17:26:24;9.70;99.90
54178;DHT22;40085;53.004;6.770;2023-02-18T17:28:51;9.70;99.90
54178;DHT22;40085;53.004;6.770;2023-02-18T17:31:28;9.70;99.90
54178;DHT22;40085;53.004;6.770;2023-02-18T17:34:01;9.70;99.90
54178;DHT22;40085;53.004;6.770;2023-02-18T17:36:28;9.70;99.90
54178;DHT22;40085;53.004;6.770;2023-02-18T17:38:54;9.70;99.90
54178;DHT22;40085;53.004;6.770;2023-02-18T17:41:19;9.70;99.90
54178;DHT22;40085;53.004;6.770;2023-02-18T17:43:45;9.60;99.90
54178;DHT22;40085;53.004;6.770;2023-02-18T17:46:12;9.60;99.90
54178;DHT22;40085;53.004;6.770;2023-02-18T17:48:39;9.60;99.90
54178;DHT22;40085;53.004;6.770;2023-02-18T17:51:05;10.30;99.90
54178;DHT22;40085;53.004;6.770;2023-02-18T17:53:32;9.60;99.90
54178;DHT22;40085;53.004;6.770;2023-02-18T17:55:58;10.10;99.90
54178;DHT22;40085;53.004;6.770;2023-02-18T17:58:24;9.60;99.90
54178;DHT22;40085;53.004;6.770;2023-02-18T18:00:55;9.80;99.90
54178;DHT22;40085;53.004;6.770;2023-02-18T18:03:21;9.60;99.90
54178;DHT22;40085;53.004;6.770;2023-02-18T18:05:48;9.50;99.90
54178;DHT22;40085;53.004;6.770;2023-02-18T18:08:16;9.50;99.90
54178;DHT22;40085;53.004;6.770;2023-02-18T18:10:51;9.40;99.90
54178;DHT22;40085;53.004;6.770;2023-02-18T18:13:23;9.40;99.90
54178;DHT22;40085;53.004;6.770;2023-02-18T18:15:52;9.50;99.90
54178;DHT22;40085;53.004;6.770;2023-02-18T18:18:18;9.40;99.90